createdAt,value
2024-05-09T00:00:35.291Z,97596.13
2024-05-09T00:03:05.555Z,97593.38
2024-05-09T00:05:32.573Z,97586.25
2024-05-09T00:07:59.659Z,97591.19
2024-05-09T00:10:35.013Z,97589.38
2024-05-09T00:13:04.612Z,97598.19
2024-05-09T00:15:31.626Z,97595.25
2024-05-09T00:17:58.743Z,97598.03
2024-05-09T00:20:33.666Z,97595.06
2024-05-09T00:23:05.525Z,97596.84
2024-05-09T00:25:32.497Z,97593.63
2024-05-09T00:27:59.432Z,97596.25
2024-05-09T00:30:33.448Z,97585.59
2024-05-09T00:33:03.649Z,97589.66
2024-05-09T00:35:31.115Z,97593.78
2024-05-09T00:37:58.152Z,97598.25
2024-05-09T00:40:35.117Z,97586.13
2024-05-09T00:43:06.283Z,97595.00
2024-05-09T00:45:33.271Z,97579.25
2024-05-09T00:48:00.641Z,97581.66
2024-05-09T00:50:35.547Z,97579.75
2024-05-09T00:53:04.311Z,97562.66
2024-05-09T00:55:31.260Z,97564.91
2024-05-09T00:57:58.191Z,97558.84
2024-05-09T01:00:31.679Z,97561.22
2024-05-09T01:03:05.795Z,97566.19
2024-05-09T01:05:33.203Z,97556.13
2024-05-09T01:08:00.238Z,97555.47
2024-05-09T01:10:33.727Z,97563.84
2024-05-09T01:13:02.234Z,97564.28
2024-05-09T01:15:29.165Z,97569.44
2024-05-09T01:17:56.542Z,97565.00
2024-05-09T01:20:32.253Z,97573.13
2024-05-09T01:23:07.400Z,97569.97
2024-05-09T01:25:34.538Z,97574.16
2024-05-09T01:28:01.449Z,97577.91
2024-05-09T01:30:34.369Z,97582.41
2024-05-09T01:33:04.192Z,97583.31
2024-05-09T01:35:31.559Z,97583.13
2024-05-09T01:37:58.612Z,97583.19
2024-05-09T01:40:35.507Z,97589.25
2024-05-09T01:43:05.361Z,97591.19
2024-05-09T01:45:32.311Z,97580.88
2024-05-09T01:47:59.783Z,97588.38
2024-05-09T01:50:37.402Z,97588.97
2024-05-09T01:53:07.942Z,97587.81
2024-05-09T01:55:34.979Z,97591.09
2024-05-09T01:58:01.927Z,97585.06
2024-05-09T02:00:36.161Z,97589.88
2024-05-09T02:03:06.986Z,97589.25
2024-05-09T02:05:34.206Z,97589.25
2024-05-09T02:08:01.337Z,97590.59
2024-05-09T02:10:32.534Z,97592.28
2024-05-09T02:13:00.285Z,97591.50
2024-05-09T02:15:27.206Z,97592.06
2024-05-09T02:17:54.501Z,97593.56
2024-05-09T02:22:51.505Z,97591.31
2024-05-09T02:25:18.622Z,97591.06
2024-05-09T02:27:45.566Z,97596.66
2024-05-09T02:30:18.669Z,97601.19
2024-05-09T02:32:53.120Z,97603.38
2024-05-09T02:35:20.309Z,97597.38
2024-05-09T02:37:47.369Z,97590.22
2024-05-09T02:40:14.973Z,97595.69
2024-05-09T02:42:45.160Z,97596.19
2024-05-09T02:45:12.085Z,97594.16
2024-05-09T02:47:39.089Z,97594.09
2024-05-09T02:50:08.037Z,97596.50
2024-05-09T02:52:35.278Z,97592.59
2024-05-09T02:55:02.225Z,97588.69
2024-05-09T02:57:29.188Z,97586.31
2024-05-09T02:59:56.129Z,97580.78
2024-05-09T03:02:23.183Z,97585.56
2024-05-09T03:04:50.220Z,97583.56
2024-05-09T03:07:19.750Z,97589.66
2024-05-09T03:09:47.051Z,97583.25
2024-05-09T03:12:14.130Z,97582.00
2024-05-09T03:14:41.187Z,97595.69
2024-05-09T03:17:08.237Z,97600.38
2024-05-09T03:19:35.295Z,97599.16
2024-05-09T03:22:02.320Z,97594.91
2024-05-09T03:24:29.307Z,97598.03
2024-05-09T03:26:56.252Z,97592.09
2024-05-09T03:29:23.219Z,97594.72
2024-05-09T03:31:50.393Z,97593.47
2024-05-09T03:34:17.420Z,97592.78
2024-05-09T03:36:44.354Z,97596.75
2024-05-09T03:39:11.302Z,97595.56
2024-05-09T03:41:38.251Z,97596.50
2024-05-09T03:44:05.259Z,97592.03
2024-05-09T03:46:32.234Z,97594.81
2024-05-09T03:48:59.267Z,97600.38
2024-05-09T03:51:26.232Z,97602.28
2024-05-09T03:53:53.204Z,97603.06
2024-05-09T03:56:20.199Z,97603.53
2024-05-09T03:58:47.239Z,97613.34
2024-05-09T04:01:14.245Z,97614.28
2024-05-09T04:03:41.357Z,97617.75
2024-05-09T04:06:08.396Z,97615.13
2024-05-09T04:08:35.864Z,97611.53
2024-05-09T04:11:02.985Z,97611.66
2024-05-09T04:13:29.978Z,97619.06
2024-05-09T04:15:56.933Z,97611.28
2024-05-09T04:18:23.981Z,97614.22
2024-05-09T04:20:51.129Z,97622.53
2024-05-09T04:23:18.206Z,97624.19
2024-05-09T04:25:45.807Z,97616.13
2024-05-09T04:28:12.974Z,97614.66
2024-05-09T04:30:41.512Z,97620.28
2024-05-09T04:33:11.318Z,97625.59
2024-05-09T04:35:39.950Z,97639.78
2024-05-09T04:38:06.835Z,97627.84
2024-05-09T04:40:36.191Z,97631.22
2024-05-09T04:43:03.994Z,97626.56
2024-05-09T04:45:30.693Z,97627.44
2024-05-09T04:47:57.514Z,97624.19
2024-05-09T04:50:33.604Z,97630.81
2024-05-09T04:53:04.229Z,97629.28
2024-05-09T04:55:30.896Z,97623.22
2024-05-09T04:57:57.648Z,97629.25
2024-05-09T05:00:32.517Z,97624.09
2024-05-09T05:03:03.383Z,97626.25
2024-05-09T05:05:30.202Z,97626.44
2024-05-09T05:07:56.814Z,97629.69
2024-05-09T05:10:29.594Z,97624.75
2024-05-09T05:13:02.106Z,97630.00
2024-05-09T05:15:28.656Z,97617.56
2024-05-09T05:17:55.335Z,97622.47
2024-05-09T05:20:30.589Z,97629.28
2024-05-09T05:22:59.887Z,97627.09
2024-05-09T05:25:26.479Z,97635.84
2024-05-09T05:27:53.027Z,97629.31
2024-05-09T05:30:25.071Z,97635.69
2024-05-09T05:32:56.022Z,97634.25
2024-05-09T05:35:23.228Z,97632.97
2024-05-09T05:37:50.277Z,97633.66
2024-05-09T05:40:27.597Z,97639.97
2024-05-09T05:43:00.022Z,97642.00
2024-05-09T05:45:26.963Z,97633.34
2024-05-09T05:47:54.070Z,97634.81
2024-05-09T05:50:27.762Z,97630.28
2024-05-09T05:53:01.799Z,97630.97
2024-05-09T05:55:28.842Z,97632.59
2024-05-09T05:57:55.800Z,97631.31
2024-05-09T06:00:29.759Z,97636.44
2024-05-09T06:03:04.370Z,97642.66
2024-05-09T06:05:31.547Z,97638.75
2024-05-09T06:07:58.667Z,97636.06
2024-05-09T06:10:30.400Z,97631.41
2024-05-09T06:13:04.567Z,97631.38
2024-05-09T06:15:31.499Z,97635.03
2024-05-09T06:17:59.018Z,97629.81
2024-05-09T06:20:34.744Z,97624.97
2024-05-09T06:23:04.397Z,97630.31
2024-05-09T06:25:31.696Z,97633.19
2024-05-09T06:27:58.685Z,97635.44
2024-05-09T06:30:30.968Z,97638.47
2024-05-09T06:33:05.825Z,97627.69
2024-05-09T06:35:33.432Z,97640.63
2024-05-09T06:38:00.622Z,97640.94
2024-05-09T06:40:36.242Z,97648.94
2024-05-09T06:43:05.868Z,97647.38
2024-05-09T06:45:32.831Z,97653.97
2024-05-09T06:48:00.047Z,97654.38
2024-05-09T06:50:31.116Z,97651.53
2024-05-09T06:53:02.795Z,97653.19
2024-05-09T06:55:29.884Z,97645.06
2024-05-09T06:57:56.847Z,97644.59
2024-05-09T07:00:30.739Z,97643.78
2024-05-09T07:03:05.975Z,97642.63
2024-05-09T07:05:33.227Z,97645.31
2024-05-09T07:08:00.339Z,97642.16
2024-05-09T07:10:33.040Z,97633.47
2024-05-09T07:13:02.330Z,97642.78
2024-05-09T07:15:29.363Z,97640.31
2024-05-09T07:17:56.672Z,97636.25
2024-05-09T07:20:32.257Z,97643.78
2024-05-09T07:23:01.935Z,97643.28
2024-05-09T07:25:28.749Z,97639.16
2024-05-09T07:27:55.410Z,97639.91
2024-05-09T07:30:27.591Z,97637.63
2024-05-09T07:32:59.877Z,97630.22
2024-05-09T07:35:26.844Z,97629.28
2024-05-09T07:37:53.693Z,97628.31
2024-05-09T07:42:49.809Z,97619.41
2024-05-09T07:45:39.009Z,97631.88
2024-05-09T07:52:22.948Z,97623.91
2024-05-09T07:53:38.358Z,97621.03
2024-05-09T07:56:05.622Z,97626.91
2024-05-09T07:58:32.280Z,97622.28
2024-05-09T08:00:58.977Z,97614.88
2024-05-09T08:03:25.717Z,97618.59
2024-05-09T08:05:52.399Z,97607.56
2024-05-09T08:08:18.986Z,97604.59
2024-05-09T08:10:45.698Z,97601.22
2024-05-09T08:13:12.485Z,97603.38
2024-05-09T08:15:39.280Z,97600.69
2024-05-09T08:18:06.022Z,97606.28
2024-05-09T08:20:35.274Z,97600.84
2024-05-09T08:23:02.612Z,97597.66
2024-05-09T08:25:29.575Z,97598.47
2024-05-09T08:27:56.576Z,97591.66
2024-05-09T08:30:30.145Z,97603.38
2024-05-09T08:33:03.064Z,97597.41
2024-05-09T08:35:29.703Z,97600.09
2024-05-09T08:37:56.424Z,97598.03
2024-05-09T08:40:30.718Z,97607.56
2024-05-09T08:43:01.669Z,97600.28
2024-05-09T08:45:28.320Z,97591.56
2024-05-09T08:47:55.096Z,97582.41
2024-05-09T08:50:31.569Z,97592.06
2024-05-09T08:53:04.284Z,97590.22
2024-05-09T08:55:30.839Z,97591.34
2024-05-09T08:57:57.422Z,97590.00
2024-05-09T09:00:33.736Z,97593.94
2024-05-09T09:03:03.718Z,97597.69
2024-05-09T09:05:30.471Z,97598.94
2024-05-09T09:07:57.121Z,97598.53
2024-05-09T09:10:29.822Z,97597.38
2024-05-09T09:12:58.911Z,97597.81
2024-05-09T09:15:25.508Z,97592.75
2024-05-09T09:17:52.197Z,97591.44
2024-05-09T09:20:25.971Z,97592.97
2024-05-09T09:22:55.917Z,97587.03
2024-05-09T09:25:22.495Z,97593.31
2024-05-09T09:27:49.053Z,97592.88
2024-05-09T09:30:27.832Z,97596.47
2024-05-09T09:33:02.531Z,97594.59
2024-05-09T09:35:29.615Z,97602.81
2024-05-09T09:37:56.551Z,97597.09
2024-05-09T09:40:31.007Z,97593.41
2024-05-09T09:42:59.598Z,97597.28
2024-05-09T09:45:26.629Z,97594.09
2024-05-09T09:47:53.765Z,97599.28
2024-05-09T09:50:27.574Z,97595.13
2024-05-09T09:53:00.522Z,97596.69
2024-05-09T09:55:27.559Z,97590.50
2024-05-09T09:57:54.571Z,97592.28
2024-05-09T10:00:27.124Z,97593.00
2024-05-09T10:02:59.362Z,97591.09
2024-05-09T10:05:26.566Z,97587.38
2024-05-09T10:07:53.954Z,97589.16
2024-05-09T10:10:27.319Z,97575.69
2024-05-09T10:12:58.974Z,97574.34
2024-05-09T10:15:25.955Z,97577.97
2024-05-09T10:17:53.151Z,97573.06
2024-05-09T10:20:22.220Z,97571.78
2024-05-09T10:22:54.624Z,97566.88
2024-05-09T10:25:21.723Z,97579.56
2024-05-09T10:27:48.867Z,97577.81
2024-05-09T10:30:21.670Z,97569.78
2024-05-09T10:32:56.492Z,97575.91
2024-05-09T10:35:23.568Z,97573.59
2024-05-09T10:37:50.488Z,97572.41
2024-05-09T10:40:25.734Z,97570.75
2024-05-09T10:42:56.336Z,97568.03
2024-05-09T10:45:23.443Z,97573.28
2024-05-09T10:47:50.546Z,97575.97
2024-05-09T10:50:25.073Z,97563.91
2024-05-09T10:52:55.567Z,97571.91
2024-05-09T10:55:22.707Z,97564.69
2024-05-09T10:57:49.925Z,97570.06
2024-05-09T11:00:27.031Z,97557.06
2024-05-09T11:02:57.536Z,97564.38
2024-05-09T11:05:24.698Z,97555.38
2024-05-09T11:07:51.742Z,97553.03
2024-05-09T11:10:27.110Z,97549.69
2024-05-09T11:12:58.862Z,97550.25
2024-05-09T11:15:25.906Z,97552.53
2024-05-09T11:17:53.116Z,97543.03
2024-05-09T11:20:26.869Z,97537.66
2024-05-09T11:22:56.777Z,97534.53
2024-05-09T11:25:23.875Z,97525.44
2024-05-09T11:27:50.540Z,97537.94
2024-05-09T11:30:24.207Z,97533.41
2024-05-09T11:32:56.665Z,97524.44
2024-05-09T11:35:23.394Z,97529.13
2024-05-09T11:37:49.941Z,97533.41
2024-05-09T11:40:21.554Z,97534.84
2024-05-09T11:42:53.426Z,97526.69
2024-05-09T11:45:20.195Z,97519.44
2024-05-09T11:47:46.877Z,97524.25
2024-05-09T11:50:22.342Z,97529.03
2024-05-09T11:52:53.818Z,97522.41
2024-05-09T11:55:20.849Z,97527.66
2024-05-09T11:57:48.182Z,97519.22
2024-05-09T12:00:18.278Z,97521.28
2024-05-09T12:02:51.883Z,97517.81
2024-05-09T12:05:18.618Z,97519.56
2024-05-09T12:07:45.270Z,97510.56
2024-05-09T12:10:16.660Z,97511.03
2024-05-09T12:12:46.084Z,97505.19
2024-05-09T12:15:12.694Z,97498.34
2024-05-09T12:17:39.327Z,97497.81
2024-05-09T12:20:11.319Z,97491.56
2024-05-09T12:22:43.720Z,97487.69
2024-05-09T12:25:10.393Z,97487.22
2024-05-09T12:27:37.507Z,97498.63
2024-05-09T12:30:05.807Z,97485.41
2024-05-09T12:32:34.237Z,97485.59
2024-05-09T12:35:01.214Z,97484.66
2024-05-09T12:37:28.167Z,97471.25
2024-05-09T12:39:55.143Z,97467.53
2024-05-09T12:42:27.287Z,97473.53
2024-05-09T12:44:55.550Z,97479.38
2024-05-09T12:47:22.603Z,97467.53
2024-05-09T12:49:49.708Z,97465.75
2024-05-09T12:52:16.803Z,97463.31
2024-05-09T12:54:43.811Z,97454.34
2024-05-09T12:57:10.778Z,97459.72
2024-05-09T12:59:37.728Z,97467.78
2024-05-09T13:02:04.877Z,97454.69
2024-05-09T13:04:32.230Z,97458.50
2024-05-09T13:06:59.296Z,97455.19
2024-05-09T13:09:26.246Z,97451.16
2024-05-09T13:11:53.256Z,97451.16
2024-05-09T13:14:20.200Z,97454.00
2024-05-09T13:16:47.145Z,97448.16
2024-05-09T13:19:14.161Z,97437.47
2024-05-09T13:21:41.156Z,97447.31
2024-05-09T13:24:08.161Z,97445.16
2024-05-09T13:26:35.101Z,97436.41
2024-05-09T13:29:02.025Z,97432.28
2024-05-09T13:31:29.054Z,97435.69
2024-05-09T13:33:56.126Z,97434.06
2024-05-09T13:36:23.161Z,97430.81
2024-05-09T13:38:49.731Z,97420.88
2024-05-09T13:41:16.300Z,97416.81
2024-05-09T13:43:42.858Z,97408.09
2024-05-09T13:46:09.514Z,97401.56
2024-05-09T13:48:36.161Z,97409.94
2024-05-09T13:51:02.765Z,97416.81
2024-05-09T13:53:29.346Z,97408.63
2024-05-09T13:55:56.021Z,97401.19
2024-05-09T13:58:22.734Z,97412.94
2024-05-09T14:00:49.809Z,97403.69
2024-05-09T14:03:17.658Z,97398.31
2024-05-09T14:05:46.044Z,97394.22
2024-05-09T14:08:12.688Z,97395.22
2024-05-09T14:10:39.362Z,97391.13
2024-05-09T14:13:05.970Z,97409.41
2024-05-09T14:15:32.645Z,97399.16
2024-05-09T14:17:59.325Z,97398.81
2024-05-09T14:20:31.155Z,97392.59
2024-05-09T14:22:58.956Z,97384.59
2024-05-09T14:25:25.568Z,97383.91
2024-05-09T14:27:52.211Z,97381.06
2024-05-09T14:30:26.385Z,97388.25
2024-05-09T14:33:00.945Z,97383.34
2024-05-09T14:35:27.658Z,97378.13
2024-05-09T14:37:54.708Z,97377.84
2024-05-09T14:40:31.164Z,97384.06
2024-05-09T14:43:06.773Z,97380.09
2024-05-09T14:45:33.861Z,97379.72
2024-05-09T14:48:01.146Z,97373.44
2024-05-09T14:50:35.133Z,97369.16
2024-05-09T14:53:05.341Z,97370.81
2024-05-09T14:55:32.363Z,97358.00
2024-05-09T14:57:59.383Z,97371.31
2024-05-09T15:00:33.017Z,97376.31
2024-05-09T15:03:03.074Z,97361.53
2024-05-09T15:05:30.396Z,97360.13
2024-05-09T15:07:57.470Z,97358.84
2024-05-09T15:10:33.366Z,97365.72
2024-05-09T15:13:02.905Z,97364.09
2024-05-09T15:15:29.949Z,97361.56
2024-05-09T15:17:56.782Z,97351.00
2024-05-09T15:20:31.048Z,97346.91
2024-05-09T15:23:01.962Z,97362.31
2024-05-09T15:25:28.743Z,97361.50
2024-05-09T15:27:55.574Z,97355.34
2024-05-09T15:30:29.587Z,97359.97
2024-05-09T15:32:58.504Z,97356.41
2024-05-09T15:35:25.112Z,97352.22
2024-05-09T15:37:51.668Z,97352.66
2024-05-09T15:40:25.940Z,97345.81
2024-05-09T15:43:01.669Z,97346.31
2024-05-09T15:45:28.320Z,97357.47
2024-05-09T15:47:54.977Z,97350.91
2024-05-09T15:50:31.981Z,97345.34
2024-05-09T15:53:03.928Z,97350.16
2024-05-09T15:55:30.477Z,97345.53
2024-05-09T15:57:57.130Z,97351.22
2024-05-09T16:00:29.180Z,97343.97
2024-05-09T16:03:03.320Z,97354.78
2024-05-09T16:05:30.005Z,97341.75
2024-05-09T16:07:56.663Z,97340.97
2024-05-09T16:10:26.264Z,97335.63
2024-05-09T16:12:58.793Z,97333.63
2024-05-09T16:15:25.756Z,97325.09
2024-05-09T16:17:52.720Z,97336.41
2024-05-09T16:20:33.148Z,97326.69
2024-05-09T16:23:05.396Z,97327.84
2024-05-09T16:25:32.370Z,97326.38
2024-05-09T16:27:59.380Z,97331.97
2024-05-09T16:30:33.728Z,97337.38
2024-05-09T16:33:02.909Z,97343.13
2024-05-09T16:35:30.252Z,97336.03
2024-05-09T16:37:57.453Z,97352.94
2024-05-09T16:40:34.346Z,97348.53
2024-05-09T16:43:06.136Z,97346.28
2024-05-09T16:45:33.543Z,97343.25
2024-05-09T16:48:01.001Z,97344.38
2024-05-09T16:50:32.630Z,97347.56
2024-05-09T16:53:01.465Z,97344.50
2024-05-09T16:55:28.488Z,97342.59
2024-05-09T16:57:55.623Z,97341.91
2024-05-09T17:00:31.793Z,97345.44
2024-05-09T17:03:07.183Z,97344.72
2024-05-09T17:05:35.417Z,97351.19
2024-05-09T17:08:02.900Z,97347.34
2024-05-09T17:10:33.570Z,97342.97
2024-05-09T17:13:02.482Z,97345.03
2024-05-09T17:15:30.033Z,97347.41
2024-05-09T17:17:57.190Z,97341.63
2024-05-09T17:20:31.754Z,97344.78
2024-05-09T17:23:02.088Z,97343.56
2024-05-09T17:25:29.148Z,97339.31
2024-05-09T17:27:56.231Z,97344.50
2024-05-09T17:30:29.382Z,97345.44
2024-05-09T17:33:02.548Z,97350.13
2024-05-09T17:35:29.649Z,97352.75
2024-05-09T17:37:56.698Z,97351.53
2024-05-09T17:40:31.136Z,97331.28
2024-05-09T17:43:02.323Z,97347.09
2024-05-09T17:45:29.644Z,97346.78
2024-05-09T17:47:56.900Z,97337.41
2024-05-09T17:50:30.842Z,97355.88
2024-05-09T17:53:02.272Z,97345.03
2024-05-09T17:55:29.583Z,97346.94
2024-05-09T17:57:56.944Z,97346.38
2024-05-09T18:00:36.190Z,97345.13
2024-05-09T18:03:06.952Z,97349.91
2024-05-09T18:05:34.307Z,97351.50
2024-05-09T18:08:01.614Z,97354.66
2024-05-09T18:10:35.346Z,97356.88
2024-05-09T18:13:06.144Z,97357.69
2024-05-09T18:15:33.654Z,97356.34
2024-05-09T18:18:00.941Z,97350.97
2024-05-09T18:20:37.032Z,97349.16
2024-05-09T18:23:09.549Z,97358.00
2024-05-09T18:25:36.505Z,97357.09
2024-05-09T18:28:03.561Z,97363.19
2024-05-09T18:30:34.990Z,97359.09
2024-05-09T18:33:04.133Z,97353.72
2024-05-09T18:35:31.537Z,97350.09
2024-05-09T18:37:58.480Z,97352.84
2024-05-09T18:40:32.623Z,97350.03
2024-05-09T18:43:03.099Z,97344.41
2024-05-09T18:45:30.862Z,97350.91
2024-05-09T18:47:58.227Z,97351.56
2024-05-09T18:50:34.218Z,97356.16
2024-05-09T18:53:04.734Z,97352.31
2024-05-09T18:55:31.687Z,97353.47
2024-05-09T18:57:58.677Z,97350.50
2024-05-09T19:00:33.871Z,97352.09
2024-05-09T19:03:04.669Z,97350.13
2024-05-09T19:05:32.470Z,97357.00
2024-05-09T19:07:59.621Z,97360.22
2024-05-09T19:10:33.600Z,97361.28
2024-05-09T19:13:05.421Z,97364.31
2024-05-09T19:15:36.012Z,97381.34
2024-05-09T19:18:03.150Z,97370.03
2024-05-09T19:20:34.445Z,97378.88
2024-05-09T19:23:03.087Z,97377.41
2024-05-09T19:25:30.134Z,97377.81
2024-05-09T19:27:57.204Z,97373.97
2024-05-09T19:30:32.931Z,97375.84
2024-05-09T19:33:05.383Z,97381.53
2024-05-09T19:35:32.556Z,97377.94
2024-05-09T19:37:59.568Z,97377.91
2024-05-09T19:40:31.408Z,97382.59
2024-05-09T19:43:00.516Z,97389.31
2024-05-09T19:45:27.607Z,97385.00
2024-05-09T19:47:54.741Z,97389.13
2024-05-09T19:50:30.262Z,97390.91
2024-05-09T19:53:03.370Z,97393.06
2024-05-09T19:55:30.280Z,97386.81
2024-05-09T19:57:57.814Z,97392.19
2024-05-09T20:00:32.570Z,97385.72
2024-05-09T20:03:03.072Z,97394.19
2024-05-09T20:05:30.301Z,97393.41
2024-05-09T20:07:57.439Z,97387.13
2024-05-09T20:10:29.842Z,97388.22
2024-05-09T20:12:59.965Z,97389.47
2024-05-09T20:15:27.191Z,97393.75
2024-05-09T20:17:54.667Z,97393.19
2024-05-09T20:20:32.212Z,97382.28
2024-05-09T20:23:04.230Z,97402.28
2024-05-09T20:25:31.197Z,97401.47
2024-05-09T20:27:58.176Z,97401.94
2024-05-09T20:30:31.465Z,97405.47
2024-05-09T20:33:00.641Z,97402.22
2024-05-09T20:35:27.814Z,97404.06
2024-05-09T20:37:54.723Z,97399.06
2024-05-09T20:40:28.900Z,97398.19
2024-05-09T20:43:00.121Z,97401.88
2024-05-09T20:45:27.245Z,97407.44
2024-05-09T20:47:54.363Z,97407.34
2024-05-09T20:50:29.050Z,97405.66
2024-05-09T20:53:03.862Z,97411.41
2024-05-09T20:55:30.872Z,97406.56
2024-05-09T20:57:57.948Z,97416.03
2024-05-09T21:00:34.550Z,97399.22
2024-05-09T21:03:07.019Z,97396.47
2024-05-09T21:05:34.991Z,97410.34
2024-05-09T21:08:02.789Z,97406.00
2024-05-09T21:10:32.592Z,97408.75
2024-05-09T21:13:00.996Z,97408.75
2024-05-09T21:15:28.078Z,97406.56
2024-05-09T21:17:55.231Z,97402.16
2024-05-09T21:20:28.615Z,97401.72
2024-05-09T21:22:58.138Z,97403.84
2024-05-09T21:25:25.145Z,97402.00
2024-05-09T21:27:52.280Z,97400.53
2024-05-09T21:30:31.190Z,97404.22
2024-05-09T21:33:06.009Z,97409.31
2024-05-09T21:35:33.089Z,97413.91
2024-05-09T21:38:00.059Z,97410.66
2024-05-09T21:40:33.817Z,97403.06
2024-05-09T21:43:02.916Z,97402.16
2024-05-09T21:45:29.966Z,97401.78
2024-05-09T21:47:57.016Z,97394.66
2024-05-09T21:50:31.880Z,97403.03
2024-05-09T21:53:05.908Z,97407.88
2024-05-09T21:55:32.927Z,97406.06
2024-05-09T21:57:59.944Z,97410.78
2024-05-09T22:00:34.694Z,97405.66
2024-05-09T22:03:04.662Z,97418.09
2024-05-09T22:05:31.964Z,97407.06
2024-05-09T22:07:59.058Z,97410.94
2024-05-09T22:10:30.891Z,97411.31
2024-05-09T22:13:01.772Z,97411.47
2024-05-09T22:15:28.955Z,97422.31
2024-05-09T22:17:57.142Z,97413.94
2024-05-09T22:20:33.118Z,97413.03
2024-05-09T22:23:03.709Z,97411.19
2024-05-09T22:25:31.471Z,97409.81
2024-05-09T22:27:59.225Z,97412.50
2024-05-09T22:30:34.427Z,97419.13
2024-05-09T22:33:05.349Z,97409.38
2024-05-09T22:35:32.533Z,97413.50
2024-05-09T22:37:59.470Z,97421.91
2024-05-09T22:40:38.159Z,97413.69
2024-05-09T22:43:13.622Z,97420.72
2024-05-09T22:45:40.812Z,97422.00
2024-05-09T22:48:08.249Z,97425.78
2024-05-09T22:50:36.420Z,97414.69
2024-05-09T22:53:03.345Z,97423.44
2024-05-09T22:55:30.292Z,97427.03
2024-05-09T22:57:57.392Z,97420.88
2024-05-09T23:02:54.334Z,97418.88
2024-05-09T23:05:21.458Z,97415.50
2024-05-09T23:07:48.517Z,97418.31
2024-05-09T23:10:21.387Z,97421.91
2024-05-09T23:12:55.114Z,97419.88
2024-05-09T23:15:22.146Z,97424.28
2024-05-09T23:17:49.174Z,97425.22
2024-05-09T23:20:22.067Z,97424.75
2024-05-09T23:22:56.931Z,97416.22
2024-05-09T23:25:24.025Z,97414.16
2024-05-09T23:27:51.019Z,97420.56
2024-05-09T23:30:28.433Z,97422.69
2024-05-09T23:33:01.645Z,97431.31
2024-05-09T23:35:28.723Z,97419.88
2024-05-09T23:37:55.750Z,97416.72
2024-05-09T23:40:23.652Z,97416.38
2024-05-09T23:42:53.705Z,97420.31
2024-05-09T23:45:20.691Z,97415.94
2024-05-09T23:47:47.732Z,97418.63
2024-05-09T23:50:20.522Z,97419.31
2024-05-09T23:52:50.997Z,97414.84
2024-05-09T23:55:18.149Z,97411.44
2024-05-09T23:57:45.325Z,97412.25
